This is the latest recevied weather packets stored in our database for station/object KA3RQR. If no packets are shown the sender has not sent any weather packets the latest 1 day(s).
| Time | Temp. | Humidity | Pressure | Rain* | Wind** | Luminosity | Snow |
|---|---|---|---|---|---|---|---|
| 1777986218 | 18.89° C | 58% | 1012.8 hPa | 0 mm | 0.45 m/s, 186° | 37 W/m² | - |
| 1777985916 | 18.89° C | 57% | 1012.7 hPa | 0 mm | 0.89 m/s, 204° | 36 W/m² | - |
| 1777985613 | 18.33° C | 59% | 1012.9 hPa | 0 mm | 0 m/s | 36 W/m² | - |
| 1777985309 | 18.33° C | 59% | 1012.9 hPa | 0 mm | 0 m/s | 35 W/m² | - |
| 1777985006 | 17.78° C | 59% | 1012.8 hPa | 0 mm | 1.79 m/s, 289° | 35 W/m² | - |
| 1777984702 | 17.78° C | 60% | 1012.9 hPa | 0 mm | 0.45 m/s, 177° | 35 W/m² | - |
| 1777984399 | 17.78° C | 59% | 1013.1 hPa | 0 mm | 0.89 m/s, 220° | 35 W/m² | - |
| 1777984095 | 17.22° C | 60% | 1013 hPa | 0 mm | 0.89 m/s, 226° | 33 W/m² | - |
| 1777983793 | 17.22° C | 60% | 1012.8 hPa | 0 mm | 1.34 m/s, 229° | 33 W/m² | - |
| 1777983489 | 17.22° C | 60% | 1013 hPa | 0 mm | 0.45 m/s, 178° | 32 W/m² | - |
| 1777983186 | 16.67° C | 61% | 1012.9 hPa | 0 mm | 0.89 m/s, 228° | 30 W/m² | - |
| 1777982882 | 16.67° C | 61% | 1013.1 hPa | 0 mm | 0 m/s | 31 W/m² | - |
| 1777982578 | 16.67° C | 62% | 1012.9 hPa | 0 mm | 0.45 m/s, 153° | 29 W/m² | - |
| 1777982277 | 16.67° C | 62% | 1012.8 hPa | 0 mm | 0.45 m/s, 107° | 29 W/m² | - |
| 1777981975 | 16.67° C | 62% | 1012.8 hPa | 0 mm | 1.34 m/s, 174° | 32 W/m² | - |
| 1777981672 | 16.11° C | 62% | 1012.4 hPa | 0 mm | 0.45 m/s, 178° | 33 W/m² | - |
| 1777981368 | 16.11° C | 63% | 1012.5 hPa | 0 mm | 0.45 m/s, 99° | 37 W/m² | - |
| 1777981065 | 16.11° C | 64% | 1012.4 hPa | 0 mm | 0 m/s | 35 W/m² | - |
| 1777980761 | 15.56° C | 65% | 1012.5 hPa | 0 mm | 0 m/s | 30 W/m² | - |
| 1777980457 | 15.56° C | 64% | 1012.5 hPa | 0 mm | 0.45 m/s, 190° | 29 W/m² | - |
| 1777980155 | 15.56° C | 64% | 1012.3 hPa | 0 mm | 0.89 m/s, 252° | 28 W/m² | - |
| 1777979855 | 15.56° C | 64% | 1012.3 hPa | 0 mm | 0.45 m/s, 190° | 20 W/m² | - |
| 1777979551 | 15.56° C | 64% | 1012.3 hPa | 0 mm | 0.45 m/s, 213° | 17 W/m² | - |
| 1777979247 | 15.56° C | 63% | 1012.2 hPa | 0 mm | 0 m/s | 17 W/m² | - |
| 1777978945 | 15.56° C | 63% | 1012.3 hPa | 0 mm | 1.79 m/s, 152° | 17 W/m² | - |
* Rain latest hour (hover to see other rain measurements)
** Current wind speed in m/s (hover to see current wind gust speed)